Torbat-Heydarieh, Iran
Current Conditions -  °F | °C
As of 11:30 AM on Saturday 20 Dec 2014 (Local Time) from OIMM Reporting Station
Scattered Clouds Scattered Clouds  
Wind Chill: 13°   Ceiling: Unl
Heat Index: 13°   Visibility: 6mi
Dew Point:   Wind: 7mph
Humidity: 47%   Direction: 80°E
Pressure: 30.12"   Gusts: NA
Location:  35.27°N, 59.22°E
Report Text: OIMM 200830Z 08006KT 9999 FEW040 SCT110 13/02 Q1020 A3013
Loading
Personal Weather Stations






























Interactive Weather Map New forecast layout! Learn more

10-Day Weather Forecast

Advertisements
Track Severe Weather on mobile